sensor_id;sensor_type;location;lat;lon;timestamp;pressure;altitude;pressure_sealevel;temperature;humidity
75923;BME280;64602;47.542;19.090;2023-07-31T00:03:53;100042.28;;;19.31;87.62
75923;BME280;64602;47.542;19.090;2023-07-31T00:08:55;100050.22;;;19.33;87.52
75923;BME280;64602;47.542;19.090;2023-07-31T00:13:57;100034.81;;;19.23;87.73
75923;BME280;64602;47.542;19.090;2023-07-31T00:19:00;100042.06;;;19.19;87.75
75923;BME280;64602;47.542;19.090;2023-07-31T00:24:02;100044.19;;;19.22;87.53
75923;BME280;64602;47.542;19.090;2023-07-31T00:29:04;100050.00;;;19.20;87.21
75923;BME280;64602;47.542;19.090;2023-07-31T00:34:06;100055.31;;;19.17;87.23
75923;BME280;64602;47.542;19.090;2023-07-31T00:39:08;100051.91;;;19.11;87.27
75923;BME280;64602;47.542;19.090;2023-07-31T00:44:10;100057.22;;;19.08;87.22
75923;BME280;64602;47.542;19.090;2023-07-31T00:49:13;100066.31;;;19.08;87.24
75923;BME280;64602;47.542;19.090;2023-07-31T00:54:15;100077.97;;;19.14;87.01
75923;BME280;64602;47.542;19.090;2023-07-31T00:59:17;100077.47;;;19.12;87.08
75923;BME280;64602;47.542;19.090;2023-07-31T01:04:21;100068.38;;;19.03;87.32
75923;BME280;64602;47.542;19.090;2023-07-31T01:15:09;100068.84;;;18.96;87.96
75923;BME280;64602;47.542;19.090;2023-07-31T01:20:20;100070.09;;;18.90;88.17
75923;BME280;64602;47.542;19.090;2023-07-31T01:31:07;100083.31;;;18.79;88.89
75923;BME280;64602;47.542;19.090;2023-07-31T01:36:11;100074.16;;;18.70;89.04
75923;BME280;64602;47.542;19.090;2023-07-31T01:41:13;100091.16;;;18.72;89.13
75923;BME280;64602;47.542;19.090;2023-07-31T01:46:15;100082.72;;;18.68;89.34
75923;BME280;64602;47.542;19.090;2023-07-31T01:51:18;100083.34;;;18.65;89.74
75923;BME280;64602;47.542;19.090;2023-07-31T01:56:20;100083.97;;;18.62;90.05
75923;BME280;64602;47.542;19.090;2023-07-31T02:01:22;100076.03;;;18.61;90.26
75923;BME280;64602;47.542;19.090;2023-07-31T02:06:24;100056.12;;;18.55;90.28
75923;BME280;64602;47.542;19.090;2023-07-31T02:11:26;100050.75;;;18.50;90.46
75923;BME280;64602;47.542;19.090;2023-07-31T02:16:28;100052.81;;;18.44;90.85
75923;BME280;64602;47.542;19.090;2023-07-31T02:21:31;100053.44;;;18.41;91.08
75923;BME280;64602;47.542;19.090;2023-07-31T02:26:33;100051.13;;;18.34;91.11
75923;BME280;64602;47.542;19.090;2023-07-31T02:31:35;100059.69;;;18.33;91.17
75923;BME280;64602;47.542;19.090;2023-07-31T02:36:37;100066.28;;;18.32;90.67
75923;BME280;64602;47.542;19.090;2023-07-31T02:41:39;100072.13;;;18.30;90.56
75923;BME280;64602;47.542;19.090;2023-07-31T02:46:42;100076.97;;;18.33;90.20
75923;BME280;64602;47.542;19.090;2023-07-31T02:51:44;100054.94;;;18.25;89.90
75923;BME280;64602;47.542;19.090;2023-07-31T02:56:46;100062.66;;;18.23;89.72
75923;BME280;64602;47.542;19.090;2023-07-31T03:01:48;100077.72;;;18.25;89.25
75923;BME280;64602;47.542;19.090;2023-07-31T03:06:50;100076.53;;;18.18;89.17
75923;BME280;64602;47.542;19.090;2023-07-31T03:11:53;100073.09;;;18.12;89.06
75923;BME280;64602;47.542;19.090;2023-07-31T03:16:55;100081.97;;;18.09;88.96
75923;BME280;64602;47.542;19.090;2023-07-31T03:21:57;100082.25;;;18.07;88.79
75923;BME280;64602;47.542;19.090;2023-07-31T03:26:59;100095.88;;;18.12;88.73
75923;BME280;64602;47.542;19.090;2023-07-31T03:32:01;100093.44;;;18.11;88.64
75923;BME280;64602;47.542;19.090;2023-07-31T03:37:04;100079.50;;;18.07;88.47
75923;BME280;64602;47.542;19.090;2023-07-31T03:42:07;100085.63;;;18.04;88.41
75923;BME280;64602;47.542;19.090;2023-07-31T03:47:09;100091.19;;;18.13;87.96
75923;BME280;64602;47.542;19.090;2023-07-31T03:52:11;100091.50;;;18.11;87.90
75923;BME280;64602;47.542;19.090;2023-07-31T03:57:13;100098.44;;;18.09;87.74
75923;BME280;64602;47.542;19.090;2023-07-31T04:02:15;100104.91;;;18.13;87.42
75923;BME280;64602;47.542;19.090;2023-07-31T04:07:18;100096.38;;;18.14;86.80
75923;BME280;64602;47.542;19.090;2023-07-31T04:12:20;100110.19;;;18.23;86.27
75923;BME280;64602;47.542;19.090;2023-07-31T04:17:22;100099.69;;;18.25;86.03
75923;BME280;64602;47.542;19.090;2023-07-31T04:22:24;100115.06;;;18.26;85.62
75923;BME280;64602;47.542;19.090;2023-07-31T04:27:26;100107.94;;;18.25;85.18
75923;BME280;64602;47.542;19.090;2023-07-31T04:32:28;100105.09;;;18.30;85.19
75923;BME280;64602;47.542;19.090;2023-07-31T04:37:31;100111.25;;;18.36;84.79
75923;BME280;64602;47.542;19.090;2023-07-31T04:42:34;100106.69;;;18.31;84.23
75923;BME280;64602;47.542;19.090;2023-07-31T04:47:36;100104.63;;;18.37;84.05
75923;BME280;64602;47.542;19.090;2023-07-31T04:52:38;100113.75;;;18.46;83.74
75923;BME280;64602;47.542;19.090;2023-07-31T04:57:41;100122.22;;;18.50;83.50
75923;BME280;64602;47.542;19.090;2023-07-31T05:02:43;100133.38;;;18.53;82.92
75923;BME280;64602;47.542;19.090;2023-07-31T05:07:45;100134.50;;;18.52;82.36
75923;BME280;64602;47.542;19.090;2023-07-31T05:12:47;100129.81;;;18.53;81.62
75923;BME280;64602;47.542;19.090;2023-07-31T05:17:49;100131.13;;;18.55;81.21
75923;BME280;64602;47.542;19.090;2023-07-31T05:22:52;100143.94;;;18.60;80.09
75923;BME280;64602;47.542;19.090;2023-07-31T05:27:54;100132.53;;;18.67;79.38
75923;BME280;64602;47.542;19.090;2023-07-31T05:32:56;100134.44;;;18.66;77.32
75923;BME280;64602;47.542;19.090;2023-07-31T05:37:58;100139.50;;;18.73;77.13
75923;BME280;64602;47.542;19.090;2023-07-31T05:43:00;100139.91;;;18.80;76.08
75923;BME280;64602;47.542;19.090;2023-07-31T05:48:03;100144.06;;;19.00;74.84
75923;BME280;64602;47.542;19.090;2023-07-31T05:53:06;100143.00;;;19.10;73.59
75923;BME280;64602;47.542;19.090;2023-07-31T05:58:09;100145.44;;;19.11;71.87
75923;BME280;64602;47.542;19.090;2023-07-31T06:03:12;100156.53;;;19.29;71.08
75923;BME280;64602;47.542;19.090;2023-07-31T06:08:14;100169.56;;;19.46;71.12
75923;BME280;64602;47.542;19.090;2023-07-31T06:13:16;100163.25;;;19.45;70.96
75923;BME280;64602;47.542;19.090;2023-07-31T06:18:18;100162.81;;;19.60;69.91
75923;BME280;64602;47.542;19.090;2023-07-31T06:23:20;100170.00;;;19.70;69.98
75923;BME280;64602;47.542;19.090;2023-07-31T06:28:30;100164.00;;;19.68;68.61
75923;BME280;64602;47.542;19.090;2023-07-31T06:33:33;100167.16;;;19.84;67.73
75923;BME280;64602;47.542;19.090;2023-07-31T06:38:35;100161.53;;;19.98;66.97
75923;BME280;64602;47.542;19.090;2023-07-31T06:43:39;100157.50;;;20.13;66.42
75923;BME280;64602;47.542;19.090;2023-07-31T06:48:41;100162.19;;;20.21;65.84
75923;BME280;64602;47.542;19.090;2023-07-31T06:53:43;100147.44;;;20.17;65.71
75923;BME280;64602;47.542;19.090;2023-07-31T06:58:47;100161.69;;;20.01;65.71
75923;BME280;64602;47.542;19.090;2023-07-31T07:03:49;100156.97;;;20.02;65.72
75923;BME280;64602;47.542;19.090;2023-07-31T07:08:52;100163.63;;;20.10;66.03
75923;BME280;64602;47.542;19.090;2023-07-31T07:13:55;100162.31;;;20.07;66.28
75923;BME280;64602;47.542;19.090;2023-07-31T07:18:57;100168.03;;;20.11;66.49
75923;BME280;64602;47.542;19.090;2023-07-31T07:24:06;100183.94;;;20.22;66.12
75923;BME280;64602;47.542;19.090;2023-07-31T07:29:08;100187.03;;;20.47;65.24
75923;BME280;64602;47.542;19.090;2023-07-31T07:34:13;100172.97;;;20.66;64.73
75923;BME280;64602;47.542;19.090;2023-07-31T07:39:15;100177.00;;;20.77;63.30
75923;BME280;64602;47.542;19.090;2023-07-31T07:44:17;100167.75;;;20.82;62.83
75923;BME280;64602;47.542;19.090;2023-07-31T07:49:19;100170.34;;;20.96;61.56
75923;BME280;64602;47.542;19.090;2023-07-31T07:54:24;100175.53;;;20.97;60.83
75923;BME280;64602;47.542;19.090;2023-07-31T07:59:26;100161.59;;;20.67;60.76
75923;BME280;64602;47.542;19.090;2023-07-31T08:04:28;100163.84;;;20.65;60.16
75923;BME280;64602;47.542;19.090;2023-07-31T08:09:30;100177.34;;;20.67;58.78
75923;BME280;64602;47.542;19.090;2023-07-31T08:14:33;100171.47;;;20.86;58.32
75923;BME280;64602;47.542;19.090;2023-07-31T08:19:35;100171.56;;;21.24;56.57
75923;BME280;64602;47.542;19.090;2023-07-31T08:24:37;100162.59;;;21.45;55.43
75923;BME280;64602;47.542;19.090;2023-07-31T08:29:39;100163.78;;;21.73;54.47
75923;BME280;64602;47.542;19.090;2023-07-31T08:34:42;100166.72;;;21.98;52.98
75923;BME280;64602;47.542;19.090;2023-07-31T08:39:44;100161.53;;;22.26;51.36
75923;BME280;64602;47.542;19.090;2023-07-31T08:44:46;100162.94;;;22.53;51.81
75923;BME280;64602;47.542;19.090;2023-07-31T08:49:51;100162.37;;;22.81;50.34
75923;BME280;64602;47.542;19.090;2023-07-31T08:54:54;100161.81;;;23.09;49.72
75923;BME280;64602;47.542;19.090;2023-07-31T08:59:56;100164.41;;;23.38;49.73
75923;BME280;64602;47.542;19.090;2023-07-31T09:05:00;100155.66;;;23.49;48.64
75923;BME280;64602;47.542;19.090;2023-07-31T09:10:03;100164.78;;;23.61;48.76
75923;BME280;64602;47.542;19.090;2023-07-31T09:15:06;100153.81;;;23.65;47.85
75923;BME280;64602;47.542;19.090;2023-07-31T09:20:19;100152.34;;;23.80;47.07
75923;BME280;64602;47.542;19.090;2023-07-31T09:25:24;100161.81;;;24.03;45.98
75923;BME280;64602;47.542;19.090;2023-07-31T09:30:26;100154.78;;;24.46;46.73
75923;BME280;64602;47.542;19.090;2023-07-31T09:35:31;100161.06;;;24.71;45.25
75923;BME280;64602;47.542;19.090;2023-07-31T09:40:39;100152.09;;;24.90;45.48
75923;BME280;64602;47.542;19.090;2023-07-31T09:45:42;100148.53;;;25.06;44.24
75923;BME280;64602;47.542;19.090;2023-07-31T09:50:47;100144.53;;;25.19;44.08
75923;BME280;64602;47.542;19.090;2023-07-31T09:55:49;100144.12;;;25.49;43.47
75923;BME280;64602;47.542;19.090;2023-07-31T10:00:51;100133.59;;;25.26;41.76
75923;BME280;64602;47.542;19.090;2023-07-31T10:05:55;100139.88;;;26.22;42.67
75923;BME280;64602;47.542;19.090;2023-07-31T10:10:59;100134.22;;;26.18;41.65
75923;BME280;64602;47.542;19.090;2023-07-31T10:16:03;100127.00;;;26.33;40.40
75923;BME280;64602;47.542;19.090;2023-07-31T10:21:05;100138.66;;;26.39;39.73
75923;BME280;64602;47.542;19.090;2023-07-31T10:26:08;100144.59;;;26.76;39.39
75923;BME280;64602;47.542;19.090;2023-07-31T10:31:11;100136.22;;;26.96;39.60
75923;BME280;64602;47.542;19.090;2023-07-31T10:36:16;100134.94;;;26.90;39.22
75923;BME280;64602;47.542;19.090;2023-07-31T10:41:19;100124.38;;;27.45;39.39
75923;BME280;64602;47.542;19.090;2023-07-31T10:46:22;100133.69;;;27.53;39.22
75923;BME280;64602;47.542;19.090;2023-07-31T10:51:32;100128.78;;;27.46;39.31
75923;BME280;64602;47.542;19.090;2023-07-31T10:56:38;100117.88;;;27.60;38.82
75923;BME280;64602;47.542;19.090;2023-07-31T11:01:54;100117.91;;;27.64;38.53
75923;BME280;64602;47.542;19.090;2023-07-31T11:07:01;100108.37;;;27.65;38.73
75923;BME280;64602;47.542;19.090;2023-07-31T11:12:05;100118.19;;;28.08;37.83
75923;BME280;64602;47.542;19.090;2023-07-31T11:17:07;100106.47;;;28.26;37.84
75923;BME280;64602;47.542;19.090;2023-07-31T11:22:10;100102.28;;;28.09;36.39
75923;BME280;64602;47.542;19.090;2023-07-31T11:27:12;100084.50;;;28.24;37.07
75923;BME280;64602;47.542;19.090;2023-07-31T11:32:17;100102.00;;;28.48;36.82
75923;BME280;64602;47.542;19.090;2023-07-31T11:37:20;100076.81;;;28.14;36.16
75923;BME280;64602;47.542;19.090;2023-07-31T11:42:22;100084.53;;;27.67;36.51
75923;BME280;64602;47.542;19.090;2023-07-31T11:47:25;100077.78;;;27.99;36.35
75923;BME280;64602;47.542;19.090;2023-07-31T11:52:30;100089.28;;;27.94;36.71
75923;BME280;64602;47.542;19.090;2023-07-31T11:57:34;100082.62;;;27.75;36.51
75923;BME280;64602;47.542;19.090;2023-07-31T12:02:37;100081.06;;;27.78;36.45
75923;BME280;64602;47.542;19.090;2023-07-31T12:13:05;100069.22;;;28.11;36.85
75923;BME280;64602;47.542;19.090;2023-07-31T12:18:10;100060.78;;;28.38;36.44
75923;BME280;64602;47.542;19.090;2023-07-31T12:23:19;100065.03;;;28.28;35.68
75923;BME280;64602;47.542;19.090;2023-07-31T12:28:30;100054.00;;;28.39;36.07
75923;BME280;64602;47.542;19.090;2023-07-31T12:33:34;100046.47;;;28.76;36.16
75923;BME280;64602;47.542;19.090;2023-07-31T12:38:37;100060.41;;;28.76;36.01
75923;BME280;64602;47.542;19.090;2023-07-31T12:43:41;100042.31;;;29.04;35.02
75923;BME280;64602;47.542;19.090;2023-07-31T12:48:43;100047.63;;;29.16;34.78
75923;BME280;64602;47.542;19.090;2023-07-31T12:53:45;100031.81;;;28.90;35.25
75923;BME280;64602;47.542;19.090;2023-07-31T12:58:47;100018.31;;;29.51;34.35
75923;BME280;64602;47.542;19.090;2023-07-31T13:03:49;100010.66;;;30.14;34.18
75923;BME280;64602;47.542;19.090;2023-07-31T13:08:52;100015.56;;;30.46;33.14
75923;BME280;64602;47.542;19.090;2023-07-31T13:13:54;100011.62;;;30.65;32.62
75923;BME280;64602;47.542;19.090;2023-07-31T13:18:56;100014.00;;;30.70;31.41
75923;BME280;64602;47.542;19.090;2023-07-31T13:23:58;99997.28;;;30.95;30.96
75923;BME280;64602;47.542;19.090;2023-07-31T13:29:02;100000.03;;;31.31;31.03
75923;BME280;64602;47.542;19.090;2023-07-31T13:34:04;99988.38;;;31.36;30.53
75923;BME280;64602;47.542;19.090;2023-07-31T13:39:06;100000.28;;;32.05;30.12
75923;BME280;64602;47.542;19.090;2023-07-31T13:44:09;99993.50;;;31.88;30.26
75923;BME280;64602;47.542;19.090;2023-07-31T13:49:11;99982.41;;;31.16;30.87
75923;BME280;64602;47.542;19.090;2023-07-31T13:54:13;99997.88;;;31.89;29.22
75923;BME280;64602;47.542;19.090;2023-07-31T13:59:17;99985.16;;;31.63;29.51
75923;BME280;64602;47.542;19.090;2023-07-31T14:04:20;99987.84;;;32.02;29.16
75923;BME280;64602;47.542;19.090;2023-07-31T14:09:22;99971.03;;;31.84;29.76
75923;BME280;64602;47.542;19.090;2023-07-31T14:14:24;99972.66;;;32.63;28.82
75923;BME280;64602;47.542;19.090;2023-07-31T14:19:26;99969.97;;;32.38;29.02
75923;BME280;64602;47.542;19.090;2023-07-31T14:24:28;99975.59;;;31.32;30.32
75923;BME280;64602;47.542;19.090;2023-07-31T14:29:31;99969.97;;;30.42;31.19
75923;BME280;64602;47.542;19.090;2023-07-31T14:34:33;99963.50;;;30.20;31.53
75923;BME280;64602;47.542;19.090;2023-07-31T14:39:35;99944.28;;;30.11;31.92
75923;BME280;64602;47.542;19.090;2023-07-31T14:44:41;99946.38;;;30.61;31.39
75923;BME280;64602;47.542;19.090;2023-07-31T14:49:43;99945.53;;;31.28;30.44
75923;BME280;64602;47.542;19.090;2023-07-31T14:54:45;99953.16;;;31.35;30.51
75923;BME280;64602;47.542;19.090;2023-07-31T14:59:47;99946.41;;;30.79;30.45
75923;BME280;64602;47.542;19.090;2023-07-31T15:04:49;99948.81;;;30.87;30.30
75923;BME280;64602;47.542;19.090;2023-07-31T15:09:52;99947.59;;;30.63;30.38
75923;BME280;64602;47.542;19.090;2023-07-31T15:14:54;99936.38;;;30.71;30.07
75923;BME280;64602;47.542;19.090;2023-07-31T15:19:56;99936.34;;;31.21;30.09
75923;BME280;64602;47.542;19.090;2023-07-31T15:24:58;99934.00;;;31.12;30.04
75923;BME280;64602;47.542;19.090;2023-07-31T15:30:00;99927.50;;;30.18;31.41
75923;BME280;64602;47.542;19.090;2023-07-31T15:35:02;99921.88;;;30.04;31.68
75923;BME280;64602;47.542;19.090;2023-07-31T15:40:05;99916.09;;;29.61;32.14
75923;BME280;64602;47.542;19.090;2023-07-31T15:45:08;99908.94;;;28.97;32.44
75923;BME280;64602;47.542;19.090;2023-07-31T15:50:12;99902.22;;;29.06;32.46
75923;BME280;64602;47.542;19.090;2023-07-31T15:55:14;99896.34;;;28.66;32.80
75923;BME280;64602;47.542;19.090;2023-07-31T16:00:16;99894.34;;;28.22;33.51
75923;BME280;64602;47.542;19.090;2023-07-31T16:05:19;99890.44;;;27.89;34.43
75923;BME280;64602;47.542;19.090;2023-07-31T16:10:21;99893.47;;;27.47;34.82
75923;BME280;64602;47.542;19.090;2023-07-31T16:15:23;99887.37;;;27.38;35.44
75923;BME280;64602;47.542;19.090;2023-07-31T16:20:25;99872.63;;;27.07;35.60
75923;BME280;64602;47.542;19.090;2023-07-31T16:25:28;99886.81;;;26.98;35.19
75923;BME280;64602;47.542;19.090;2023-07-31T16:30:30;99890.16;;;26.84;36.40
75923;BME280;64602;47.542;19.090;2023-07-31T16:35:32;99885.25;;;26.74;36.05
75923;BME280;64602;47.542;19.090;2023-07-31T16:40:34;99890.53;;;26.56;36.71
75923;BME280;64602;47.542;19.090;2023-07-31T16:45:36;99878.66;;;26.36;37.18
75923;BME280;64602;47.542;19.090;2023-07-31T16:50:38;99873.81;;;26.10;38.00
75923;BME280;64602;47.542;19.090;2023-07-31T16:55:41;99880.78;;;25.81;38.40
75923;BME280;64602;47.542;19.090;2023-07-31T17:00:43;99884.97;;;25.71;38.79
75923;BME280;64602;47.542;19.090;2023-07-31T17:05:45;99883.34;;;25.51;38.73
75923;BME280;64602;47.542;19.090;2023-07-31T17:10:47;99882.69;;;25.38;39.03
75923;BME280;64602;47.542;19.090;2023-07-31T17:15:49;99889.44;;;25.37;39.21
75923;BME280;64602;47.542;19.090;2023-07-31T17:20:52;99888.19;;;25.34;39.40
75923;BME280;64602;47.542;19.090;2023-07-31T17:25:54;99886.34;;;25.23;39.58
75923;BME280;64602;47.542;19.090;2023-07-31T17:30:56;99891.91;;;25.23;39.69
75923;BME280;64602;47.542;19.090;2023-07-31T17:35:58;99896.00;;;25.13;40.02
75923;BME280;64602;47.542;19.090;2023-07-31T17:41:00;99882.88;;;25.10;40.15
75923;BME280;64602;47.542;19.090;2023-07-31T17:46:03;99896.66;;;25.06;40.45
75923;BME280;64602;47.542;19.090;2023-07-31T17:51:05;99899.59;;;24.98;40.60
75923;BME280;64602;47.542;19.090;2023-07-31T17:56:08;99913.59;;;25.01;40.27
75923;BME280;64602;47.542;19.090;2023-07-31T18:01:10;99910.81;;;24.85;41.07
75923;BME280;64602;47.542;19.090;2023-07-31T18:06:12;99889.38;;;24.66;41.45
75923;BME280;64602;47.542;19.090;2023-07-31T18:11:14;99892.16;;;24.50;41.74
75923;BME280;64602;47.542;19.090;2023-07-31T18:16:16;99884.69;;;24.39;41.96
75923;BME280;64602;47.542;19.090;2023-07-31T18:21:19;99906.25;;;24.29;42.21
75923;BME280;64602;47.542;19.090;2023-07-31T18:26:21;99907.22;;;24.21;43.09
75923;BME280;64602;47.542;19.090;2023-07-31T18:31:23;99906.56;;;23.96;44.38
75923;BME280;64602;47.542;19.090;2023-07-31T18:36:25;99911.72;;;23.82;44.59
75923;BME280;64602;47.542;19.090;2023-07-31T18:41:27;99918.00;;;23.54;45.36
75923;BME280;64602;47.542;19.090;2023-07-31T18:46:29;99917.13;;;23.38;45.79
75923;BME280;64602;47.542;19.090;2023-07-31T18:51:32;99927.88;;;23.27;46.24
75923;BME280;64602;47.542;19.090;2023-07-31T18:56:39;99922.47;;;23.18;46.40
75923;BME280;64602;47.542;19.090;2023-07-31T19:01:41;99924.31;;;23.14;46.78
75923;BME280;64602;47.542;19.090;2023-07-31T19:06:46;99918.41;;;22.91;47.17
75923;BME280;64602;47.542;19.090;2023-07-31T19:11:48;99933.75;;;22.89;47.22
75923;BME280;64602;47.542;19.090;2023-07-31T19:16:50;99945.66;;;22.77;47.86
75923;BME280;64602;47.542;19.090;2023-07-31T19:21:53;99934.91;;;22.63;48.18
75923;BME280;64602;47.542;19.090;2023-07-31T19:26:55;99937.44;;;22.56;48.75
75923;BME280;64602;47.542;19.090;2023-07-31T19:31:57;99932.56;;;22.28;49.54
75923;BME280;64602;47.542;19.090;2023-07-31T19:36:59;99930.06;;;22.14;50.31
75923;BME280;64602;47.542;19.090;2023-07-31T19:42:01;99923.88;;;21.96;50.91
75923;BME280;64602;47.542;19.090;2023-07-31T19:47:04;99943.53;;;21.83;52.05
75923;BME280;64602;47.542;19.090;2023-07-31T19:52:07;99939.97;;;21.82;51.63
75923;BME280;64602;47.542;19.090;2023-07-31T19:57:09;99937.00;;;21.66;51.45
75923;BME280;64602;47.542;19.090;2023-07-31T20:02:11;99936.06;;;21.62;52.38
75923;BME280;64602;47.542;19.090;2023-07-31T20:07:13;99930.16;;;21.51;53.02
75923;BME280;64602;47.542;19.090;2023-07-31T20:12:15;99921.12;;;21.33;53.76
75923;BME280;64602;47.542;19.090;2023-07-31T20:17:17;99929.09;;;21.35;54.02
75923;BME280;64602;47.542;19.090;2023-07-31T20:22:20;99927.06;;;21.23;54.49
75923;BME280;64602;47.542;19.090;2023-07-31T20:27:22;99933.84;;;21.26;54.51
75923;BME280;64602;47.542;19.090;2023-07-31T20:32:24;99927.13;;;21.15;54.37
75923;BME280;64602;47.542;19.090;2023-07-31T20:37:26;99917.13;;;21.01;55.29
75923;BME280;64602;47.542;19.090;2023-07-31T20:42:28;99934.56;;;20.93;55.60
75923;BME280;64602;47.542;19.090;2023-07-31T20:47:30;99925.22;;;20.77;56.12
75923;BME280;64602;47.542;19.090;2023-07-31T20:52:33;99922.97;;;20.70;56.43
75923;BME280;64602;47.542;19.090;2023-07-31T20:57:35;99924.81;;;20.57;56.92
75923;BME280;64602;47.542;19.090;2023-07-31T21:02:37;99920.75;;;20.46;57.54
75923;BME280;64602;47.542;19.090;2023-07-31T21:07:39;99909.41;;;20.47;57.52
75923;BME280;64602;47.542;19.090;2023-07-31T21:12:44;99913.50;;;20.41;57.99
75923;BME280;64602;47.542;19.090;2023-07-31T21:17:46;99901.34;;;20.42;58.03
75923;BME280;64602;47.542;19.090;2023-07-31T21:22:48;99886.94;;;20.28;57.59
75923;BME280;64602;47.542;19.090;2023-07-31T21:27:50;99903.00;;;20.35;57.56
75923;BME280;64602;47.542;19.090;2023-07-31T21:32:52;99894.41;;;20.27;57.72
75923;BME280;64602;47.542;19.090;2023-07-31T21:37:55;99895.09;;;20.24;58.39
75923;BME280;64602;47.542;19.090;2023-07-31T21:42:57;99908.19;;;20.27;58.50
75923;BME280;64602;47.542;19.090;2023-07-31T21:47:59;99903.16;;;20.30;58.49
75923;BME280;64602;47.542;19.090;2023-07-31T21:53:02;99901.22;;;20.30;58.17
75923;BME280;64602;47.542;19.090;2023-07-31T21:58:04;99889.56;;;20.24;58.43
75923;BME280;64602;47.542;19.090;2023-07-31T22:03:06;99897.84;;;20.16;58.72
75923;BME280;64602;47.542;19.090;2023-07-31T22:08:08;99888.31;;;20.04;58.36
75923;BME280;64602;47.542;19.090;2023-07-31T22:13:10;99877.16;;;19.92;59.02
75923;BME280;64602;47.542;19.090;2023-07-31T22:18:13;99876.03;;;19.84;59.39
75923;BME280;64602;47.542;19.090;2023-07-31T22:23:15;99875.72;;;19.86;59.36
75923;BME280;64602;47.542;19.090;2023-07-31T22:28:17;99864.06;;;19.80;60.38
75923;BME280;64602;47.542;19.090;2023-07-31T22:33:22;99880.75;;;19.75;60.50
75923;BME280;64602;47.542;19.090;2023-07-31T22:38:24;99863.41;;;19.66;60.82
75923;BME280;64602;47.542;19.090;2023-07-31T22:43:27;99851.94;;;19.64;61.19
75923;BME280;64602;47.542;19.090;2023-07-31T22:48:29;99866.00;;;19.62;61.83
75923;BME280;64602;47.542;19.090;2023-07-31T22:53:31;99864.37;;;19.53;61.85
75923;BME280;64602;47.542;19.090;2023-07-31T22:58:34;99853.41;;;19.35;62.56
75923;BME280;64602;47.542;19.090;2023-07-31T23:03:36;99853.88;;;19.29;63.11
75923;BME280;64602;47.542;19.090;2023-07-31T23:08:38;99854.69;;;19.29;63.20
75923;BME280;64602;47.542;19.090;2023-07-31T23:13:41;99850.47;;;19.23;63.96
75923;BME280;64602;47.542;19.090;2023-07-31T23:18:43;99838.69;;;19.23;64.22
75923;BME280;64602;47.542;19.090;2023-07-31T23:23:45;99840.44;;;19.10;64.87
75923;BME280;64602;47.542;19.090;2023-07-31T23:28:47;99844.97;;;19.06;65.39
75923;BME280;64602;47.542;19.090;2023-07-31T23:33:49;99842.84;;;18.94;66.23
75923;BME280;64602;47.542;19.090;2023-07-31T23:38:51;99822.31;;;18.91;66.27
75923;BME280;64602;47.542;19.090;2023-07-31T23:43:54;99807.09;;;18.85;66.48
75923;BME280;64602;47.542;19.090;2023-07-31T23:48:56;99794.44;;;18.67;67.30
75923;BME280;64602;47.542;19.090;2023-07-31T23:53:58;99802.34;;;18.68;67.58
75923;BME280;64602;47.542;19.090;2023-07-31T23:59:01;99797.63;;;18.60;67.84
